Airfield :
LOGIN :

Register | Disclaimer

   EN    FR    IT 

 










Legend :    VFR   Marginal VFR   IFR   Intensive IFR   Very Intensive IFR
Visi :
Ceiling :
>= 8 km
>= 3000ft
5 to 8 km
1000 to 3000 ft
1500m to 5 km
500 to 1000 ft
800 to 1500m
200 to 500 ft
< 800m
< 200 ft
Symbols :   Thunderstorms  Fog  Heavy snow  Heavy precipitations  Wind > 20 kt
SIGMETs :     Misc.  Thunderstorms  Icing  Turbulence  Mountain Waves  Volcanic Ashes






- Airport Elevation : 39 ft


ETNH - Hohn AB

CURRENT METAR :
  • 131920Z 20009KT 8000 BKN150 19/16 Q1003 BLU

EXPIRED METARs :
  • 131820Z 18009KT 8000 BKN100 18/16 Q1003 BLU
  • 131720Z 17007KT 6000 -RA SCT040 BKN100 18/16 Q1004 WHT

TAF TAF ETNH
Valid from the 13 at 17:00 until the 14 at 05:00 UTC


131610Z 1317/1405 14007KT 9999 NSW SCT008 BKN070
BECMG 1317/1319 23010G20KT 9999 NSW SCT015 BKN030
TEMPO 1319/1405 25015G30KT 7000 -SHRA SCT010 BKN020TCU BY ETGL



MET'MAP, your aeronautical weather chart ! - Copyright ORBIFLY December 2007 - Disclaimer

ORBIFLY MET'MAP TEAM :

Programming & Development : Alexandra Zaïnal
Concept & Development : Baudouin d'Aumeries
Co-Development & Prog : Marc-Olivier Méhu
Technical & hardware support : Manuel Goepfert

Contact : metmap@orbifly.com




SOURCES & CREDITS :

   NOAA